Time;durP1;ratioP1;P1;durP2;ratioP2;P2;SDS_P1;SDS_P2;PMS_P1;PMS_P2;Temp;Humidity;BMP_temperature;BMP_pressure;BME280_temperature;BME280_humidity;BME280_pressure;Samples;Min_cycle;Max_cycle;Signal;HPM_P1;HPM_P2
2022/03/20 00:00:53;;;;;;;15.83;8.27;;;4.50;48.10;;;;;;5071295;28;20188;-73
2022/03/20 00:03:25;;;;;;;15.07;7.33;;;4.50;48.10;;;;;;5072434;28;20223;-72
2022/03/20 00:05:53;;;;;;;14.93;7.43;;;4.50;48.20;;;;;;5071433;28;20206;-74
2022/03/20 00:08:22;;;;;;;15.63;7.53;;;4.50;48.10;;;;;;5073573;28;20801;-75
2022/03/20 00:10:52;;;;;;;17.27;7.60;;;4.50;48.20;;;;;;5069733;28;20914;-74
2022/03/20 00:13:23;;;;;;;14.43;7.20;;;4.50;48.30;;;;;;5070983;28;20752;-73
2022/03/20 00:15:52;;;;;;;13.63;7.23;;;4.40;48.20;;;;;;5073666;28;20199;-74
2022/03/20 00:18:25;;;;;;;12.00;6.37;;;4.40;48.20;;;;;;5072291;28;20204;-75
2022/03/20 00:20:54;;;;;;;15.27;7.00;;;4.40;48.20;;;;;;5072678;28;20187;-73
2022/03/20 00:23:24;;;;;;;13.67;7.37;;;4.40;48.20;;;;;;5070784;28;20196;-74
2022/03/20 00:25:53;;;;;;;13.53;6.33;;;4.40;48.20;;;;;;5070752;28;20222;-74
2022/03/20 00:28:24;;;;;;;11.23;6.67;;;4.40;48.30;;;;;;5072195;28;20205;-73
2022/03/20 00:30:54;;;;;;;14.07;7.60;;;4.40;48.30;;;;;;5074343;28;20277;-73
2022/03/20 00:33:24;;;;;;;16.00;7.03;;;4.40;48.30;;;;;;5073223;28;20194;-74
2022/03/20 00:35:53;;;;;;;16.67;7.17;;;4.40;48.30;;;;;;5068614;28;20190;-75
2022/03/20 00:38:21;;;;;;;13.17;7.47;;;4.40;48.40;;;;;;5071333;28;20294;-73
2022/03/20 00:40:50;;;;;;;11.50;7.20;;;4.40;48.40;;;;;;5072013;28;20205;-73
2022/03/20 00:43:18;;;;;;;12.97;6.30;;;4.40;48.50;;;;;;5068806;28;20887;-74
2022/03/20 00:45:46;;;;;;;15.13;6.97;;;4.40;48.60;;;;;;5071517;28;20201;-74
2022/03/20 00:48:15;;;;;;;10.87;6.50;;;4.30;48.50;;;;;;5071972;28;20204;-73
2022/03/20 00:50:45;;;;;;;16.40;7.30;;;4.30;48.50;;;;;;5074012;28;20213;-73
2022/03/20 00:53:13;;;;;;;12.00;7.00;;;4.30;48.60;;;;;;5069721;28;20571;-73
2022/03/20 00:55:41;;;;;;;14.53;7.43;;;4.30;48.60;;;;;;5073522;28;20194;-73
2022/03/20 00:58:10;;;;;;;11.93;6.33;;;4.30;48.70;;;;;;5071368;28;20191;-74
2022/03/20 01:00:39;;;;;;;12.30;6.63;;;4.30;48.70;;;;;;5072008;28;20201;-74
2022/03/20 01:03:07;;;;;;;15.10;7.23;;;4.20;48.70;;;;;;5071402;28;20206;-75
2022/03/20 01:05:36;;;;;;;15.93;6.50;;;4.20;48.70;;;;;;5072244;28;20198;-74
2022/03/20 01:08:06;;;;;;;11.73;6.30;;;4.30;48.80;;;;;;5071766;28;20857;-73
2022/03/20 01:10:36;;;;;;;14.07;7.30;;;4.20;48.70;;;;;;5070814;28;20205;-73
2022/03/20 01:13:04;;;;;;;12.47;6.83;;;4.30;48.80;;;;;;5071999;28;20578;-76
2022/03/20 01:15:33;;;;;;;15.80;7.47;;;4.20;48.80;;;;;;5073344;28;21724;-74
2022/03/20 01:18:01;;;;;;;14.07;6.73;;;4.30;48.90;;;;;;5071021;28;20194;-75
2022/03/20 01:20:30;;;;;;;15.87;7.47;;;4.20;48.90;;;;;;5069308;28;20448;-75
2022/03/20 01:22:58;;;;;;;14.77;6.63;;;4.20;48.90;;;;;;5072782;28;20198;-76
2022/03/20 01:25:30;;;;;;;14.90;8.13;;;4.20;49.00;;;;;;5071084;28;20453;-74
2022/03/20 01:27:58;;;;;;;14.77;7.03;;;4.20;49.20;;;;;;5069321;28;20295;-75
2022/03/20 01:30:27;;;;;;;15.40;6.93;;;4.20;49.40;;;;;;5072087;28;20205;-73
2022/03/20 01:32:55;;;;;;;13.50;6.67;;;4.20;49.40;;;;;;5072273;28;20213;-73
2022/03/20 01:35:23;;;;;;;15.07;7.63;;;4.20;49.40;;;;;;5070661;28;20198;-74
2022/03/20 01:37:52;;;;;;;12.90;7.07;;;4.10;50.00;;;;;;5071601;28;20201;-74
2022/03/20 01:40:20;;;;;;;15.30;7.97;;;4.20;49.40;;;;;;5071331;28;20218;-74
2022/03/20 01:42:50;;;;;;;18.30;8.43;;;4.10;49.40;;;;;;5065487;28;20233;-76
2022/03/20 01:45:20;;;;;;;12.70;7.40;;;4.10;49.50;;;;;;5071512;28;20693;-74
2022/03/20 01:47:50;;;;;;;18.60;8.97;;;4.10;49.50;;;;;;5071328;28;20197;-75
2022/03/20 01:50:22;;;;;;;14.67;8.23;;;4.10;49.60;;;;;;5072109;28;21161;-74
2022/03/20 01:52:52;;;;;;;20.17;8.87;;;4.10;49.70;;;;;;5071551;28;20228;-74
2022/03/20 01:55:22;;;;;;;14.33;6.70;;;4.10;49.70;;;;;;5070766;28;20209;-74
2022/03/20 01:57:54;;;;;;;13.53;7.13;;;4.00;49.70;;;;;;5069123;28;20207;-73
2022/03/20 02:00:24;;;;;;;16.10;8.03;;;4.00;49.80;;;;;;5070270;28;20308;-73
2022/03/20 02:02:53;;;;;;;16.40;8.67;;;4.00;49.90;;;;;;5072100;28;20190;-74
2022/03/20 02:05:22;;;;;;;16.90;8.60;;;4.00;49.90;;;;;;5068466;28;20215;-74
2022/03/20 02:07:51;;;;;;;17.90;8.27;;;3.90;50.00;;;;;;5070420;28;20564;-73
2022/03/20 02:10:19;;;;;;;14.47;6.83;;;3.90;50.10;;;;;;5069888;28;20205;-73
2022/03/20 02:12:48;;;;;;;18.20;8.17;;;3.90;50.20;;;;;;5067675;28;20252;-73
2022/03/20 02:15:17;;;;;;;18.20;8.33;;;3.90;50.30;;;;;;5071892;28;20197;-74
2022/03/20 02:17:46;;;;;;;13.60;7.80;;;3.90;50.40;;;;;;5071439;28;20648;-75
2022/03/20 02:20:14;;;;;;;16.95;8.52;;;3.80;50.30;;;;;;5070470;28;20447;-74
2022/03/20 02:22:45;;;;;;;17.37;8.00;;;3.80;50.40;;;;;;5068907;28;20788;-73
2022/03/20 02:25:15;;;;;;;14.83;7.47;;;3.80;50.60;;;;;;5069959;28;20201;-74
2022/03/20 02:27:45;;;;;;;14.17;7.13;;;3.80;50.60;;;;;;5068881;28;20196;-73
2022/03/20 02:30:16;;;;;;;16.13;7.53;;;3.80;50.50;;;;;;5070442;28;20191;-74
2022/03/20 02:32:48;;;;;;;12.93;6.73;;;3.70;50.50;;;;;;5069384;28;20210;-75
2022/03/20 02:35:17;;;;;;;17.37;7.23;;;3.80;50.70;;;;;;5070587;28;20197;-75
2022/03/20 02:37:49;;;;;;;14.67;7.77;;;3.70;50.60;;;;;;5071294;28;20756;-75
2022/03/20 02:40:19;;;;;;;18.53;7.90;;;3.70;50.70;;;;;;5071032;28;20194;-74
2022/03/20 02:42:49;;;;;;;15.23;8.00;;;3.70;50.80;;;;;;5060569;28;20237;-74
2022/03/20 02:45:20;;;;;;;17.53;7.73;;;3.70;51.00;;;;;;5049014;28;20204;-75
2022/03/20 02:47:50;;;;;;;18.53;7.67;;;3.60;51.10;;;;;;5050373;28;20208;-74
2022/03/20 02:50:24;;;;;;;13.87;7.40;;;3.60;51.40;;;;;;5051615;28;20195;-74
2022/03/20 02:52:56;;;;;;;17.17;8.20;;;3.60;51.60;;;;;;5049723;28;20206;-74
2022/03/20 02:55:27;;;;;;;19.77;8.60;;;3.60;51.60;;;;;;5049943;28;20206;-74
2022/03/20 02:57:57;;;;;;;17.87;8.53;;;3.50;51.60;;;;;;5049306;28;20206;-75
2022/03/20 03:00:28;;;;;;;14.90;7.90;;;3.50;51.60;;;;;;5049286;28;21671;-74
2022/03/20 03:02:58;;;;;;;14.13;7.27;;;3.50;51.70;;;;;;5049768;28;20284;-72
2022/03/20 03:05:29;;;;;;;16.43;8.40;;;3.50;51.70;;;;;;5048511;28;20690;-74
2022/03/20 03:10:57;;;;;;;12.27;6.60;;;3.40;51.70;;;;;;5047304;28;20602;-73
2022/03/20 03:13:28;;;;;;;14.43;7.43;;;3.40;51.90;;;;;;5049498;28;20278;-73
2022/03/20 03:15:58;;;;;;;13.73;7.77;;;3.40;51.90;;;;;;5048384;28;20196;-74
2022/03/20 03:18:26;;;;;;;20.27;8.70;;;3.30;52.10;;;;;;5049010;28;20204;-75
2022/03/20 03:20:55;;;;;;;18.30;7.77;;;3.40;52.20;;;;;;5049416;28;20212;-73
2022/03/20 03:23:26;;;;;;;12.77;7.40;;;3.30;52.30;;;;;;5051337;28;20194;-74
2022/03/20 03:25:55;;;;;;;14.20;6.90;;;3.30;53.10;;;;;;5050716;28;20194;-73
2022/03/20 03:28:32;;;;;;;14.73;8.00;;;3.30;52.50;;;;;;5048265;28;20201;-75
2022/03/20 03:31:01;;;;;;;14.23;7.90;;;3.20;52.60;;;;;;5050902;28;20197;-74
2022/03/20 03:33:29;;;;;;;13.57;7.17;;;3.20;52.60;;;;;;5047944;28;20218;-74
2022/03/20 03:35:57;;;;;;;13.17;7.43;;;3.20;52.70;;;;;;5047570;28;20758;-74
2022/03/20 03:38:30;;;;;;;12.23;7.47;;;3.20;52.80;;;;;;5048782;28;20300;-76
2022/03/20 03:40:59;;;;;;;18.53;7.80;;;3.10;52.70;;;;;;5045983;28;20662;-74
2022/03/20 03:43:28;;;;;;;13.47;6.93;;;3.10;52.90;;;;;;5048164;28;20241;-73
2022/03/20 03:45:57;;;;;;;13.80;7.07;;;3.10;52.90;;;;;;5048711;28;20208;-74
2022/03/20 03:48:25;;;;;;;15.87;8.83;;;3.10;53.00;;;;;;5048210;28;20210;-73
2022/03/20 03:50:55;;;;;;;14.30;6.67;;;3.10;53.10;;;;;;5050221;28;20706;-73
2022/03/20 03:53:23;;;;;;;13.77;6.77;;;3.10;53.10;;;;;;5051505;28;20229;-74
2022/03/20 03:55:53;;;;;;;18.53;7.97;;;3.00;53.10;;;;;;5048952;28;20207;-73
2022/03/20 03:58:21;;;;;;;17.07;7.50;;;3.00;53.20;;;;;;5048214;28;20211;-76
2022/03/20 04:00:50;;;;;;;14.93;7.07;;;3.00;53.30;;;;;;5045609;28;20243;-73
2022/03/20 04:03:18;;;;;;;13.63;7.23;;;3.00;53.20;;;;;;5049466;28;20196;-72
2022/03/20 04:05:47;;;;;;;18.43;7.67;;;2.90;53.50;;;;;;5047902;28;20204;-74
2022/03/20 04:08:16;;;;;;;15.30;7.73;;;2.90;53.50;;;;;;5048071;28;20206;-73
2022/03/20 04:10:45;;;;;;;16.80;7.97;;;2.90;53.40;;;;;;5049130;28;20193;-73
2022/03/20 04:13:15;;;;;;;12.17;7.00;;;2.90;53.70;;;;;;5046516;28;20225;-74
2022/03/20 04:15:43;;;;;;;16.10;7.93;;;2.90;53.70;;;;;;5047980;28;20202;-74
2022/03/20 04:18:12;;;;;;;18.47;8.30;;;2.90;53.90;;;;;;5047157;28;20197;-74
2022/03/20 04:20:41;;;;;;;16.30;8.03;;;2.90;53.90;;;;;;5047814;28;20202;-73
2022/03/20 04:25:55;;;;;;;15.00;8.23;;;2.80;54.00;;;;;;5051567;28;20194;-73
2022/03/20 04:28:25;;;;;;;17.13;7.80;;;2.80;54.00;;;;;;5052746;28;20231;-73
2022/03/20 04:30:53;;;;;;;15.83;8.77;;;2.80;54.10;;;;;;5051895;28;20662;-73
2022/03/20 04:33:22;;;;;;;17.17;7.93;;;2.80;54.20;;;;;;5051439;28;20676;-73
2022/03/20 04:35:51;;;;;;;15.50;7.63;;;2.70;54.10;;;;;;5018656;28;20202;-73
2022/03/20 04:38:21;;;;;;;15.93;8.07;;;2.80;54.20;;;;;;5050555;28;20221;-74
2022/03/20 04:40:50;;;;;;;18.37;7.83;;;2.80;54.20;;;;;;5052948;28;20197;-72
2022/03/20 04:43:18;;;;;;;17.07;8.17;;;2.80;54.30;;;;;;5060571;28;20221;-76
2022/03/20 04:45:48;;;;;;;17.83;7.83;;;2.80;54.40;;;;;;5071873;28;20190;-74
2022/03/20 04:59:20;;;;;;;13.97;7.10;;;2.80;54.30;;;;;;5071407;28;20747;-73
2022/03/20 05:01:50;;;;;;;14.60;6.87;;;2.90;54.30;;;;;;5072248;28;20204;-73
2022/03/20 05:04:19;;;;;;;14.53;6.90;;;2.90;54.30;;;;;;5073763;28;20286;-72
2022/03/20 05:06:48;;;;;;;19.30;7.83;;;2.90;54.30;;;;;;5072931;28;20241;-74
2022/03/20 05:14:56;;;;;;;19.00;8.00;;;3.00;54.40;;;;;;5017037;28;20283;-74
2022/03/20 05:17:26;;;;;;;15.47;7.63;;;3.10;54.30;;;;;;5071522;28;20205;-75
2022/03/20 05:19:54;;;;;;;13.80;7.37;;;3.10;54.20;;;;;;5072087;28;20832;-74
2022/03/20 05:22:23;;;;;;;14.93;6.97;;;3.20;54.20;;;;;;5071449;28;20414;-75
2022/03/20 05:24:51;;;;;;;13.73;7.33;;;3.20;54.10;;;;;;5071952;28;20201;-74
2022/03/20 05:27:20;;;;;;;14.03;6.77;;;3.30;54.00;;;;;;5070844;28;20197;-74
2022/03/20 05:29:48;;;;;;;17.77;6.80;;;3.30;53.90;;;;;;5071438;28;20231;-74
2022/03/20 05:32:16;;;;;;;16.07;7.30;;;3.40;54.00;;;;;;5069824;28;20205;-74
2022/03/20 05:34:46;;;;;;;19.63;7.23;;;3.40;54.00;;;;;;5071171;28;20221;-74
2022/03/20 05:37:37;;;;;;;16.73;6.97;;;3.50;54.10;;;;;;5071315;28;20670;-74
2022/03/20 05:40:06;;;;;;;12.67;6.00;;;3.50;53.90;;;;;;5071143;28;20688;-74
2022/03/20 05:42:35;;;;;;;13.57;7.17;;;3.60;53.80;;;;;;5070438;28;20264;-74
2022/03/20 05:45:05;;;;;;;18.27;7.17;;;3.60;53.70;;;;;;5070618;28;20182;-74
2022/03/20 05:47:34;;;;;;;16.80;7.20;;;3.70;53.60;;;;;;5069869;28;20790;-73
2022/03/20 05:50:05;;;;;;;17.37;7.20;;;3.70;53.60;;;;;;5070668;28;20201;-75
2022/03/20 05:52:35;;;;;;;13.37;6.97;;;3.80;53.50;;;;;;5072417;28;20249;-73
2022/03/20 05:55:04;;;;;;;12.57;6.90;;;3.90;53.50;;;;;;5069936;28;22309;-74
2022/03/20 06:00:26;;;;;;;17.70;7.53;;;4.00;53.60;;;;;;5068482;28;20202;-73
2022/03/20 06:02:55;;;;;;;14.53;7.73;;;4.10;53.60;;;;;;5070698;28;20834;-75
2022/03/20 06:05:25;;;;;;;18.03;9.67;;;4.20;53.70;;;;;;5070522;28;20277;-77
2022/03/20 06:07:53;;;;;;;33.80;12.27;;;4.20;53.70;;;;;;5069831;28;20193;-75
2022/03/20 06:10:22;;;;;;;37.23;15.07;;;4.30;53.70;;;;;;5069492;28;20207;-75
2022/03/20 06:12:50;;;;;;;33.73;14.03;;;4.30;53.50;;;;;;5071481;28;20208;-75
2022/03/20 06:15:19;;;;;;;36.67;14.90;;;4.30;53.60;;;;;;5069677;28;20218;-73
2022/03/20 06:17:47;;;;;;;33.93;14.07;;;4.30;53.50;;;;;;5066611;28;20198;-74
2022/03/20 06:20:17;;;;;;;21.03;10.93;;;4.50;53.40;;;;;;5070789;28;20210;-75
2022/03/20 06:22:49;;;;;;;23.27;9.50;;;4.50;53.50;;;;;;5072303;28;20198;-74
2022/03/20 06:25:18;;;;;;;21.27;9.90;;;4.60;53.50;;;;;;5071401;28;20281;-74
2022/03/20 06:27:48;;;;;;;22.63;9.63;;;4.70;53.60;;;;;;5069671;28;20194;-74
2022/03/20 06:30:18;;;;;;;27.53;11.23;;;4.80;53.50;;;;;;5071386;28;20704;-76
2022/03/20 06:32:47;;;;;;;20.80;11.37;;;4.90;53.40;;;;;;5071944;28;20201;-75
2022/03/20 06:35:18;;;;;;;20.20;10.43;;;5.00;53.30;;;;;;5072487;28;20864;-75
2022/03/20 06:37:52;;;;;;;22.43;9.73;;;5.00;53.70;;;;;;5071991;28;20192;-75
2022/03/20 06:40:22;;;;;;;17.87;8.50;;;5.20;52.70;;;;;;5071580;28;20661;-75
2022/03/20 06:42:50;;;;;;;19.27;8.77;;;5.30;52.50;;;;;;5071485;28;20929;-75
2022/03/20 06:45:20;;;;;;;16.90;8.90;;;5.40;52.50;;;;;;5069817;28;20201;-75
2022/03/20 06:47:49;;;;;;;15.63;7.80;;;5.50;52.40;;;;;;5071191;28;20550;-75
2022/03/20 06:50:18;;;;;;;16.73;7.40;;;5.60;51.80;;;;;;5070675;28;20208;-76
2022/03/20 06:52:49;;;;;;;15.23;6.57;;;5.70;50.70;;;;;;5071240;28;20673;-74
2022/03/20 06:55:18;;;;;;;14.37;6.47;;;5.70;49.70;;;;;;5069209;28;20245;-75
2022/03/20 06:57:47;;;;;;;11.47;6.30;;;5.80;48.10;;;;;;5068745;28;20223;-76
2022/03/20 07:00:17;;;;;;;13.77;6.80;;;5.90;48.10;;;;;;5067824;28;20202;-77
2022/03/20 07:02:47;;;;;;;12.53;6.80;;;6.00;47.60;;;;;;5071702;28;20184;-76
2022/03/20 07:05:16;;;;;;;12.60;6.47;;;6.10;46.80;;;;;;5070076;28;20197;-75
2022/03/20 07:07:44;;;;;;;12.03;5.73;;;6.20;46.90;;;;;;5064514;28;20206;-74
2022/03/20 07:10:15;;;;;;;14.52;6.50;;;6.30;46.50;;;;;;5067894;28;21199;-75
2022/03/20 07:12:43;;;;;;;10.70;6.33;;;6.40;46.70;;;;;;5066098;28;20766;-76
2022/03/20 07:15:11;;;;;;;12.30;6.40;;;6.50;46.50;;;;;;5070155;28;20222;-77
2022/03/20 07:17:40;;;;;;;14.33;5.90;;;6.60;46.30;;;;;;5066455;28;20292;-75
2022/03/20 07:20:10;;;;;;;10.77;6.10;;;6.70;45.40;;;;;;5068644;28;20306;-80
2022/03/20 07:22:40;;;;;;;9.67;5.37;;;6.70;44.80;;;;;;5071932;28;20202;-80
2022/03/20 07:30:43;;;;;;;13.30;6.00;;;7.00;42.90;;;;;;5068321;28;20204;-78
2022/03/20 07:33:11;;;;;;;9.60;5.23;;;7.20;43.80;;;;;;5067744;28;20909;-82
2022/03/20 07:35:42;;;;;;;9.53;4.97;;;7.20;43.20;;;;;;5069056;28;20229;-79
2022/03/20 07:38:10;;;;;;;10.33;4.97;;;7.40;42.50;;;;;;5027822;28;20282;-82
2022/03/20 07:40:39;;;;;;;8.00;4.40;;;7.50;42.70;;;;;;5066892;28;20205;-80
2022/03/20 07:43:09;;;;;;;9.57;4.90;;;7.50;41.80;;;;;;5062523;28;20232;-80
2022/03/20 07:45:40;;;;;;;10.20;4.63;;;7.60;41.10;;;;;;5048321;28;20192;-79
2022/03/20 07:48:11;;;;;;;8.73;4.30;;;7.70;40.80;;;;;;5047070;28;20208;-77
2022/03/20 07:50:41;;;;;;;9.37;5.30;;;7.80;40.30;;;;;;5047331;28;20198;-79
2022/03/20 07:53:11;;;;;;;11.27;5.57;;;7.90;40.20;;;;;;5012570;28;20231;-79
2022/03/20 07:55:39;;;;;;;9.37;5.27;;;8.00;40.10;;;;;;5030750;28;20271;-78
2022/03/20 07:58:09;;;;;;;10.53;5.10;;;8.10;40.20;;;;;;5050400;28;20211;-81
2022/03/20 08:00:39;;;;;;;11.23;5.20;;;8.10;40.10;;;;;;5050924;28;20980;-78
2022/03/20 08:03:08;;;;;;;10.90;5.13;;;8.20;40.00;;;;;;5051554;28;20651;-78
2022/03/20 08:05:37;;;;;;;9.87;5.17;;;8.30;39.80;;;;;;5050488;28;20895;-80
2022/03/20 08:08:09;;;;;;;11.33;6.07;;;8.30;39.00;;;;;;5050232;28;20202;-79
2022/03/20 08:10:37;;;;;;;9.60;5.37;;;8.40;38.80;;;;;;5050460;28;20202;-79
2022/03/20 08:13:06;;;;;;;11.40;5.70;;;8.50;39.10;;;;;;5050644;28;20674;-78
2022/03/20 08:15:36;;;;;;;11.30;5.93;;;8.60;39.70;;;;;;5048555;28;20220;-79
2022/03/20 08:18:07;;;;;;;12.67;6.30;;;8.70;40.20;;;;;;5051629;28;20197;-80
2022/03/20 08:20:36;;;;;;;13.03;6.20;;;8.80;39.70;;;;;;5050880;28;20876;-79
2022/03/20 08:23:05;;;;;;;13.40;5.97;;;8.90;39.10;;;;;;5051813;28;20198;-81
2022/03/20 08:25:33;;;;;;;14.20;6.70;;;9.00;39.20;;;;;;5051080;28;20225;-77
2022/03/20 08:28:02;;;;;;;16.10;7.30;;;9.10;39.40;;;;;;5051247;28;20220;-77
2022/03/20 08:30:31;;;;;;;14.37;7.23;;;9.20;39.50;;;;;;5051131;28;20198;-77
2022/03/20 08:33:01;;;;;;;17.13;7.13;;;9.20;38.30;;;;;;5051898;28;20213;-81
2022/03/20 08:35:29;;;;;;;16.05;7.13;;;9.30;38.20;;;;;;5050983;28;20784;-79
2022/03/20 08:37:58;;;;;;;14.73;7.97;;;9.30;38.00;;;;;;5050285;28;20201;-80
2022/03/20 08:40:27;;;;;;;15.93;7.30;;;9.40;38.10;;;;;;5052941;28;20235;-77
2022/03/20 08:42:56;;;;;;;13.87;7.33;;;9.40;37.20;;;;;;5052579;28;20585;-82
2022/03/20 08:45:29;;;;;;;16.00;7.47;;;9.40;37.30;;;;;;5050551;28;20226;-78
2022/03/20 08:47:58;;;;;;;18.70;6.70;;;9.50;37.70;;;;;;5052176;28;20662;-77
2022/03/20 08:50:28;;;;;;;14.37;6.63;;;9.50;37.30;;;;;;5052484;28;20237;-77
2022/03/20 08:52:56;;;;;;;12.83;6.90;;;9.60;37.40;;;;;;5053823;28;20206;-80
2022/03/20 08:55:24;;;;;;;17.63;7.17;;;9.60;37.20;;;;;;5052553;28;20214;-77
2022/03/20 08:57:54;;;;;;;17.23;7.17;;;9.70;37.10;;;;;;5051560;28;20202;-77
2022/03/20 09:00:26;;;;;;;14.93;7.53;;;9.70;37.00;;;;;;5053283;28;20525;-78
2022/03/20 09:02:55;;;;;;;13.87;6.83;;;9.80;37.10;;;;;;5052140;28;20205;-79
2022/03/20 09:05:23;;;;;;;15.30;7.03;;;9.90;37.10;;;;;;5052510;28;20414;-78
2022/03/20 09:07:53;;;;;;;13.50;6.93;;;9.90;37.00;;;;;;5051121;28;20688;-76
2022/03/20 09:10:22;;;;;;;12.40;6.83;;;9.90;37.00;;;;;;5049840;28;20217;-77
2022/03/20 09:12:50;;;;;;;13.70;6.90;;;10.00;37.00;;;;;;5002985;28;20212;-76
2022/03/20 09:15:21;;;;;;;14.77;7.23;;;10.10;37.30;;;;;;5050729;28;20211;-77
2022/03/20 09:20:37;;;;;;;14.17;6.43;;;10.20;37.60;;;;;;5049107;28;20197;-77
2022/03/20 09:23:08;;;;;;;13.20;7.07;;;10.30;37.40;;;;;;5051120;28;20206;-78
2022/03/20 09:25:36;;;;;;;14.30;7.37;;;10.40;37.00;;;;;;5049755;28;20195;-78
2022/03/20 09:28:06;;;;;;;10.97;6.20;;;10.50;36.30;;;;;;5050307;28;20847;-77
2022/03/20 09:30:36;;;;;;;11.10;6.20;;;10.50;36.20;;;;;;5049317;28;20790;-77
2022/03/20 09:33:05;;;;;;;11.27;6.50;;;10.60;36.50;;;;;;5049842;28;20187;-78
2022/03/20 09:35:43;;;;;;;12.93;7.00;;;10.60;36.10;;;;;;5052282;28;20225;-77
2022/03/20 09:38:13;;;;;;;11.17;6.00;;;10.60;36.20;;;;;;5048176;28;20214;-78
2022/03/20 09:40:43;;;;;;;13.13;5.87;;;10.70;36.20;;;;;;5049628;28;21232;-79
2022/03/20 09:43:11;;;;;;;11.80;6.27;;;10.80;35.60;;;;;;5061261;28;20227;-78
2022/03/20 09:45:40;;;;;;;14.37;6.87;;;10.90;35.60;;;;;;5071923;28;20186;-76
2022/03/20 09:48:09;;;;;;;14.70;6.67;;;11.00;36.30;;;;;;5071554;28;20289;-78
2022/03/20 09:50:38;;;;;;;12.40;6.83;;;11.00;34.60;;;;;;5069631;28;20228;-78
2022/03/20 09:53:07;;;;;;;13.07;6.07;;;11.10;34.50;;;;;;5071610;28;20229;-78
2022/03/20 09:55:36;;;;;;;10.93;6.13;;;11.10;34.20;;;;;;5071015;28;20218;-78
2022/03/20 09:58:05;;;;;;;12.53;6.80;;;11.10;34.20;;;;;;5072091;28;20201;-82
2022/03/20 10:00:33;;;;;;;14.40;7.20;;;11.20;34.30;;;;;;5071336;28;20197;-79
2022/03/20 10:03:15;;;;;;;21.37;6.97;;;11.30;34.50;;;;;;5069537;28;20227;-80
2022/03/20 10:05:44;;;;;;;12.90;7.20;;;11.40;35.00;;;;;;5071817;28;20190;-78
2022/03/20 10:08:17;;;;;;;12.00;6.73;;;11.50;34.70;;;;;;5069806;28;20194;-79
2022/03/20 10:10:47;;;;;;;12.60;7.30;;;11.50;34.20;;;;;;5071017;28;21400;-78
2022/03/20 10:13:16;;;;;;;17.07;7.27;;;11.50;33.70;;;;;;5070226;28;20189;-78
2022/03/20 10:15:45;;;;;;;10.43;6.37;;;11.60;33.60;;;;;;5067085;28;20221;-78
2022/03/20 10:18:17;;;;;;;15.60;7.23;;;11.70;34.40;;;;;;5066022;28;20198;-81
2022/03/20 10:24:36;;;;;;;17.33;7.73;;;11.80;33.70;;;;;;4951263;28;20739;-77
2022/03/20 10:27:09;;;;;;;16.13;7.73;;;11.80;33.30;;;;;;5019330;28;20197;-77
2022/03/20 10:29:48;;;;;;;11.57;6.20;;;11.90;33.80;;;;;;5068734;28;20282;-78
2022/03/20 10:32:49;;;;;;;18.60;8.00;;;12.00;34.50;;;;;;5074104;28;20193;-75
2022/03/20 10:38:59;;;;;;;17.10;8.50;;;12.10;33.40;;;;;;5070291;28;20227;-77
2022/03/20 10:41:39;;;;;;;12.10;7.40;;;12.20;33.00;;;;;;5070142;28;20193;-78
2022/03/20 10:44:31;;;;;;;17.90;8.73;;;12.20;32.80;;;;;;5052067;28;21107;-77
2022/03/20 10:55:08;;;;;;;14.20;8.17;;;12.40;33.00;;;;;;5047499;28;20193;-77
2022/03/20 10:57:38;;;;;;;14.97;7.97;;;12.50;33.40;;;;;;5048707;28;20736;-77
2022/03/20 11:00:14;;;;;;;19.57;9.90;;;12.50;33.40;;;;;;5049183;28;20727;-77
2022/03/20 11:02:46;;;;;;;19.53;8.50;;;12.50;33.30;;;;;;5052075;28;20190;-78
2022/03/20 11:05:15;;;;;;;17.27;8.97;;;12.50;32.60;;;;;;5048692;28;20330;-77
2022/03/20 11:07:44;;;;;;;15.60;8.80;;;12.50;32.60;;;;;;5050189;28;20194;-80
2022/03/20 11:10:13;;;;;;;16.60;9.53;;;12.50;32.30;;;;;;5047597;28;20202;-78
2022/03/20 11:12:43;;;;;;;17.40;8.50;;;12.60;32.70;;;;;;5049091;28;20209;-80
2022/03/20 11:15:13;;;;;;;17.53;9.20;;;12.70;33.30;;;;;;5049316;28;20833;-80
2022/03/20 11:17:44;;;;;;;15.90;8.30;;;12.80;33.20;;;;;;5049801;28;20214;-77
2022/03/20 11:20:17;;;;;;;22.63;10.00;;;12.90;33.30;;;;;;5048444;28;20829;-79
2022/03/20 11:22:50;;;;;;;19.47;8.33;;;13.00;33.60;;;;;;5051280;28;20716;-78
2022/03/20 11:25:20;;;;;;;16.17;8.43;;;13.10;33.30;;;;;;5049164;28;20210;-79
2022/03/20 11:27:53;;;;;;;19.67;9.47;;;13.20;32.80;;;;;;5050440;28;20202;-80
2022/03/20 11:30:28;;;;;;;16.30;9.00;;;13.30;33.00;;;;;;5049199;28;20194;-78
2022/03/20 11:32:59;;;;;;;15.13;8.47;;;13.40;32.30;;;;;;5052618;28;20197;-78
2022/03/20 11:35:30;;;;;;;17.47;9.73;;;13.50;32.80;;;;;;5052843;28;20206;-79
2022/03/20 11:38:17;;;;;;;18.33;8.80;;;13.50;32.10;;;;;;5055316;28;20210;-79
2022/03/20 11:41:08;;;;;;;19.27;9.90;;;13.60;32.40;;;;;;5052137;28;20201;-79
2022/03/20 11:43:37;;;;;;;17.30;7.97;;;13.70;32.00;;;;;;5065353;28;20229;-78
2022/03/20 11:46:25;;;;;;;30.37;9.13;;;13.80;31.80;;;;;;5073444;28;20200;-79
2022/03/20 11:49:26;;;;;;;14.43;8.90;;;13.90;31.80;;;;;;5072228;28;20201;-78
2022/03/20 11:52:05;;;;;;;16.00;8.27;;;13.90;31.40;;;;;;5072436;28;20208;-78
2022/03/20 11:54:53;;;;;;;15.20;8.47;;;14.00;31.30;;;;;;5073411;28;20200;-78
2022/03/20 11:57:40;;;;;;;14.33;8.97;;;14.10;31.20;;;;;;5073127;28;20209;-78
2022/03/20 12:00:15;;;;;;;17.80;9.97;;;14.10;30.70;;;;;;5072570;28;20194;-78
2022/03/20 12:02:52;;;;;;;17.00;9.13;;;14.10;30.90;;;;;;5071890;28;20223;-78
2022/03/20 12:05:35;;;;;;;22.10;9.40;;;14.10;30.30;;;;;;5071774;28;20733;-77
2022/03/20 12:08:19;;;;;;;21.70;9.43;;;14.20;31.60;;;;;;5070495;28;20460;-79
2022/03/20 12:10:57;;;;;;;18.53;9.20;;;14.20;30.00;;;;;;5072712;28;20255;-77
2022/03/20 12:13:34;;;;;;;14.93;8.93;;;14.30;30.50;;;;;;5071177;28;20195;-77
2022/03/20 12:16:02;;;;;;;16.70;8.80;;;14.30;30.60;;;;;;5071929;28;20205;-79
2022/03/20 12:19:08;;;;;;;16.30;8.30;;;14.30;30.70;;;;;;5072466;28;20225;-78
2022/03/20 12:21:57;;;;;;;18.07;8.20;;;14.30;30.50;;;;;;5069546;28;20248;-80
2022/03/20 12:27:48;;;;;;;17.03;9.20;;;14.50;31.00;;;;;;5070482;28;20701;-75
2022/03/20 12:30:36;;;;;;;12.87;8.27;;;14.60;31.20;;;;;;5067307;28;20206;-75
2022/03/20 12:33:23;;;;;;;16.60;8.80;;;14.80;30.90;;;;;;5069300;28;20196;-73
2022/03/20 12:35:54;;;;;;;13.00;7.93;;;14.80;30.00;;;;;;5071097;28;20673;-78
2022/03/20 12:38:41;;;;;;;12.80;7.73;;;14.80;29.80;;;;;;5072405;28;20321;-78
2022/03/20 12:41:16;;;;;;;18.57;8.70;;;14.70;29.00;;;;;;5072334;28;20183;-79
2022/03/20 12:43:58;;;;;;;15.83;8.03;;;14.60;28.80;;;;;;5069176;28;20229;-78
2022/03/20 12:46:27;;;;;;;15.60;8.87;;;14.60;29.20;;;;;;5070946;28;20198;-80
2022/03/20 12:48:57;;;;;;;14.10;9.03;;;14.60;28.90;;;;;;5072623;28;20244;-80
2022/03/20 12:51:38;;;;;;;14.93;7.47;;;14.60;28.90;;;;;;5071678;28;20659;-78
2022/03/20 12:54:15;;;;;;;15.50;7.53;;;14.90;29.40;;;;;;5021525;28;20232;-80
2022/03/20 12:56:54;;;;;;;16.13;8.10;;;15.00;29.00;;;;;;5071688;28;20969;-79
2022/03/20 12:59:25;;;;;;;11.63;7.53;;;15.00;28.50;;;;;;5069402;28;20210;-78
2022/03/20 13:01:54;;;;;;;16.60;7.23;;;15.10;28.60;;;;;;5072856;28;20213;-77
2022/03/20 13:04:23;;;;;;;13.30;7.23;;;15.20;28.90;;;;;;5070771;28;20202;-78
2022/03/20 13:06:53;;;;;;;14.53;8.17;;;15.40;29.20;;;;;;5071068;28;20234;-77
2022/03/20 13:09:24;;;;;;;12.47;7.67;;;15.40;28.90;;;;;;5068981;28;20206;-81
2022/03/20 13:12:00;;;;;;;14.07;7.70;;;15.60;28.90;;;;;;5071463;28;20210;-78
2022/03/20 13:14:28;;;;;;;14.83;7.57;;;15.70;28.90;;;;;;5070352;28;20198;-79
2022/03/20 13:16:58;;;;;;;13.03;7.80;;;15.70;28.90;;;;;;5070799;28;20197;-81
2022/03/20 13:23:25;;;;;;;14.17;8.70;;;15.60;27.80;;;;;;5069129;28;20305;-77
2022/03/20 13:25:57;;;;;;;15.07;9.10;;;15.60;27.70;;;;;;5070590;28;20247;-77
2022/03/20 13:28:28;;;;;;;12.67;7.97;;;15.90;28.30;;;;;;5072600;28;20232;-74
2022/03/20 13:30:59;;;;;;;14.10;7.53;;;16.10;28.80;;;;;;5069228;28;20193;-74
2022/03/20 13:33:29;;;;;;;14.90;8.03;;;16.50;29.00;;;;;;5071642;28;20200;-74
2022/03/20 13:35:58;;;;;;;11.80;7.37;;;16.80;29.00;;;;;;5067801;28;20206;-74
2022/03/20 13:38:36;;;;;;;13.63;7.53;;;17.00;28.20;;;;;;5068821;28;20225;-73
2022/03/20 13:41:06;;;;;;;14.73;8.00;;;17.30;27.90;;;;;;5069142;28;20227;-75
2022/03/20 13:43:35;;;;;;;15.60;8.40;;;17.60;27.50;;;;;;5068628;28;20243;-76
2022/03/20 13:46:16;;;;;;;16.03;7.80;;;17.80;26.70;;;;;;5068527;28;20199;-75
2022/03/20 13:48:46;;;;;;;11.98;7.75;;;18.10;26.40;;;;;;5068482;28;20970;-75
2022/03/20 13:51:15;;;;;;;13.48;7.93;;;18.50;26.70;;;;;;5068000;28;20205;-75
2022/03/20 13:53:45;;;;;;;12.65;7.40;;;19.10;26.70;;;;;;5068679;28;20211;-73
2022/03/20 13:56:24;;;;;;;12.57;7.47;;;19.50;25.30;;;;;;5069997;28;20193;-75
2022/03/20 13:59:04;;;;;;;13.00;7.75;;;20.00;25.00;;;;;;5070567;28;20204;-74